Time;durP1;ratioP1;P1;durP2;ratioP2;P2;SDS_P1;SDS_P2;PMS_P1;PMS_P2;Temp;Humidity;BMP_temperature;BMP_pressure;BME280_temperature;BME280_humidity;BME280_pressure;Samples;Min_cycle;Max_cycle;Signal;HPM_P1;HPM_P2
2023/01/19 00:00:26;;;;;;;3.30;2.93;;;;;;;0.89;100.00;60274.75;6246760;28;20735;-44
2023/01/19 00:03:28;;;;;;;3.93;3.33;;;;;;;0.86;100.00;60274.75;6245479;28;20887;-45
2023/01/19 00:06:30;;;;;;;4.20;3.20;;;;;;;0.84;100.00;60274.75;6233982;28;20236;-43
2023/01/19 00:09:37;;;;;;;4.20;3.50;;;;;;;0.80;100.00;60274.75;6246352;28;20283;-43
2023/01/19 00:12:39;;;;;;;3.73;3.37;;;;;;;-144.22;100.00;60274.75;6245218;28;20506;-43
2023/01/19 00:15:42;;;;;;;4.43;3.50;;;;;;;-144.22;100.00;60274.75;6243562;28;20520;-44
2023/01/19 00:18:45;;;;;;;5.87;4.00;;;;;;;-144.22;100.00;60274.75;6246897;28;20425;-43
2023/01/19 00:21:47;;;;;;;6.03;4.73;;;;;;;0.71;100.00;60274.75;6224271;28;20243;-43
2023/01/19 00:24:49;;;;;;;6.07;4.27;;;;;;;0.70;100.00;60274.75;6244668;28;20241;-43
2023/01/19 00:27:51;;;;;;;5.53;4.10;;;;;;;-144.22;100.00;60274.75;6228022;28;20246;-44
2023/01/19 00:30:54;;;;;;;5.23;4.13;;;;;;;-144.22;100.00;60274.75;6245073;28;20579;-44
2023/01/19 00:33:56;;;;;;;5.97;4.47;;;;;;;-144.22;100.00;60274.75;6240896;28;20246;-43
2023/01/19 00:37:01;;;;;;;6.27;4.77;;;;;;;-144.22;100.00;60274.75;6246154;28;20290;-44
2023/01/19 00:40:04;;;;;;;6.00;4.37;;;;;;;-144.22;100.00;60274.75;6229577;28;20259;-43
2023/01/19 00:43:06;;;;;;;5.23;4.50;;;;;;;-144.22;100.00;60274.75;6245915;28;20324;-43
2023/01/19 00:46:09;;;;;;;5.07;4.30;;;;;;;188.01;100.00;60274.75;6248653;28;20323;-44
2023/01/19 00:49:12;;;;;;;4.93;4.43;;;;;;;-144.22;100.00;60274.75;6242831;28;20266;-43
2023/01/19 00:52:14;;;;;;;5.27;4.50;;;;;;;-144.22;100.00;60274.75;6245297;28;20845;-45
2023/01/19 00:55:16;;;;;;;5.17;4.60;;;;;;;-144.22;100.00;60274.75;6244934;28;20400;-43
2023/01/19 00:58:18;;;;;;;5.90;4.40;;;;;;;-144.22;100.00;60274.75;6245154;28;20248;-44
2023/01/19 01:01:20;;;;;;;5.50;4.83;;;;;;;-144.22;100.00;60274.75;6248434;28;20888;-43
2023/01/19 01:04:43;;;;;;;5.57;4.83;;;;;;;-144.22;100.00;60274.75;6252842;28;20231;-44
2023/01/19 01:07:49;;;;;;;5.83;4.80;;;;;;;-144.22;100.00;60274.75;6244114;28;20342;-44
2023/01/19 01:10:51;;;;;;;5.77;4.90;;;;;;;-144.22;100.00;60274.75;6249034;28;20259;-43
2023/01/19 01:13:53;;;;;;;7.23;5.33;;;;;;;-144.22;100.00;60274.75;6227683;28;20235;-44
2023/01/19 01:16:56;;;;;;;6.20;5.07;;;;;;;-144.22;100.00;60274.75;6228128;28;20241;-43
2023/01/19 01:19:59;;;;;;;6.30;5.20;;;;;;;-144.22;100.00;60274.75;6229904;28;20610;-43
2023/01/19 01:23:01;;;;;;;6.00;5.40;;;;;;;-144.22;100.00;60274.75;6245455;28;20234;-43
2023/01/19 01:26:04;;;;;;;6.30;5.50;;;;;;;-144.22;100.00;60274.75;6244423;28;20566;-44
2023/01/19 01:29:07;;;;;;;6.30;5.17;;;;;;;-144.22;100.00;60274.75;6243435;28;20617;-43
2023/01/19 01:32:09;;;;;;;6.33;5.10;;;;;;;-144.22;100.00;60274.75;6245920;28;20235;-43
2023/01/19 01:35:13;;;;;;;7.30;5.20;;;;;;;-144.22;100.00;60274.75;6244739;28;20412;-43
2023/01/19 01:38:15;;;;;;;6.70;5.53;;;;;;;-144.22;100.00;60274.75;6246985;28;20231;-43
2023/01/19 01:41:18;;;;;;;6.37;5.30;;;;;;;188.01;100.00;60274.75;6243510;28;20773;-43
2023/01/19 01:44:48;;;;;;;7.03;5.47;;;;;;;-144.22;100.00;60274.75;6244489;28;20226;-44
2023/01/19 01:47:53;;;;;;;7.77;5.00;;;;;;;-144.22;100.00;60274.75;6240272;28;20233;-43
2023/01/19 01:54:27;;;;;;;6.27;5.00;;;;;;;-144.22;100.00;60274.75;6245254;28;20214;-43
2023/01/19 01:57:29;;;;;;;6.90;5.67;;;;;;;188.01;100.00;60274.75;6239781;28;20303;-43
2023/01/19 02:02:49;;;;;;;6.87;5.40;;;;;;;0.33;100.00;60274.75;6244009;28;20707;-45
2023/01/19 02:03:56;;;;;;;6.60;5.43;;;;;;;-144.22;100.00;60274.75;6246946;28;20277;-44
2023/01/19 02:13:45;;;;;;;8.53;5.87;;;;;;;-144.22;100.00;60274.75;6243760;28;20239;-43
2023/01/19 02:16:48;;;;;;;6.50;5.77;;;;;;;-144.22;100.00;60274.75;6242851;28;20284;-44
2023/01/19 02:19:51;;;;;;;6.60;5.37;;;;;;;-144.22;100.00;60274.75;6242019;28;20257;-43
2023/01/19 02:22:56;;;;;;;5.80;5.03;;;;;;;-144.22;100.00;60274.75;6243561;28;20897;-44
2023/01/19 02:25:59;;;;;;;6.63;5.50;;;;;;;-144.22;100.00;60274.75;6239250;28;20915;-44
2023/01/19 02:29:08;;;;;;;6.47;5.87;;;;;;;0.45;100.00;60274.75;6244449;28;20280;-44
2023/01/19 02:32:10;;;;;;;6.20;5.60;;;;;;;-144.22;100.00;60274.75;6246175;28;20434;-44
2023/01/19 02:35:12;;;;;;;6.50;5.53;;;;;;;-144.22;100.00;60274.75;6242433;28;20400;-43
2023/01/19 02:38:17;;;;;;;5.97;5.37;;;;;;;-144.22;100.00;60274.75;6242189;28;20615;-44
2023/01/19 02:41:25;;;;;;;6.67;5.17;;;;;;;-144.22;100.00;60274.75;6242658;28;20599;-44
2023/01/19 02:44:29;;;;;;;6.07;5.27;;;;;;;-144.22;100.00;60274.75;6244996;28;20431;-43
2023/01/19 02:47:41;;;;;;;6.43;5.47;;;;;;;-144.22;100.00;60274.75;6237745;28;20419;-43
2023/01/19 02:50:48;;;;;;;6.87;5.37;;;;;;;-144.22;100.00;60274.75;6241792;28;20418;-43
2023/01/19 02:54:05;;;;;;;5.50;4.93;;;;;;;-144.22;100.00;60274.75;6243989;28;20243;-43
2023/01/19 02:57:26;;;;;;;6.43;5.70;;;;;;;-144.22;100.00;60274.75;6243137;28;20238;-44
2023/01/19 03:00:53;;;;;;;6.93;5.93;;;;;;;-144.22;100.00;60274.75;6238343;28;20224;-43
2023/01/19 03:04:14;;;;;;;7.37;5.50;;;;;;;-144.22;100.00;60274.75;6241293;28;20302;-43
2023/01/19 03:07:42;;;;;;;7.57;6.20;;;;;;;-144.22;100.00;60274.75;6237754;28;20657;-43
2023/01/19 03:11:06;;;;;;;6.67;5.30;;;;;;;-144.22;100.00;60274.75;6245517;28;20539;-43
2023/01/19 03:14:17;;;;;;;5.83;5.00;;;;;;;-144.22;100.00;60274.75;6238280;28;20258;-44
2023/01/19 03:17:21;;;;;;;6.60;5.47;;;;;;;-144.22;100.00;60274.75;6240498;28;20618;-43
2023/01/19 03:20:27;;;;;;;6.83;5.40;;;;;;;-144.22;100.00;60274.75;6242100;28;20234;-44
2023/01/19 03:23:33;;;;;;;8.10;6.20;;;;;;;-144.22;100.00;60274.75;6242180;28;20231;-43
2023/01/19 03:26:40;;;;;;;7.27;5.43;;;;;;;-144.22;100.00;60274.75;6241628;28;20429;-43
2023/01/19 03:29:49;;;;;;;7.10;5.67;;;;;;;-144.22;100.00;60274.75;6241915;28;20269;-46
2023/01/19 03:32:58;;;;;;;7.33;6.00;;;;;;;-144.22;100.00;60274.75;6232649;28;20242;-44
2023/01/19 03:36:08;;;;;;;7.60;5.87;;;;;;;0.13;100.00;60274.75;6250810;28;20429;-43
2023/01/19 03:39:13;;;;;;;7.83;6.20;;;;;;;188.01;100.00;60274.75;6243280;28;20806;-43
2023/01/19 03:42:16;;;;;;;5.90;5.30;;;;;;;-144.22;100.00;60274.75;6246837;28;20622;-43
2023/01/19 03:45:20;;;;;;;7.60;6.43;;;;;;;-144.22;100.00;60274.75;6248494;28;20316;-43
2023/01/19 03:48:23;;;;;;;7.47;5.90;;;;;;;-144.22;100.00;60274.75;6245310;28;20231;-44
2023/01/19 03:51:26;;;;;;;7.53;5.90;;;;;;;-144.22;100.00;60274.75;6247184;28;20242;-44
2023/01/19 03:54:28;;;;;;;6.63;5.83;;;;;;;-144.22;100.00;60274.75;6245919;28;20229;-45
2023/01/19 03:57:31;;;;;;;7.13;6.30;;;;;;;-0.05;100.00;60274.75;6246667;28;20515;-44
2023/01/19 04:00:35;;;;;;;7.23;6.30;;;;;;;-144.22;100.00;60274.75;6244921;28;20270;-43
2023/01/19 04:03:37;;;;;;;8.73;6.83;;;;;;;188.01;100.00;60274.75;6245719;28;20238;-44
2023/01/19 04:06:39;;;;;;;8.77;6.67;;;;;;;-144.22;100.00;60274.75;6246889;28;20238;-44
2023/01/19 04:09:42;;;;;;;9.93;6.30;;;;;;;-144.22;100.00;60274.75;6248562;28;20686;-43
2023/01/19 04:12:44;;;;;;;8.70;6.80;;;;;;;-144.22;100.00;60274.75;6246168;28;20725;-44
2023/01/19 04:15:47;;;;;;;8.27;7.10;;;;;;;-144.22;100.00;60274.75;6245422;28;20577;-44
2023/01/19 04:18:49;;;;;;;8.13;6.90;;;;;;;-144.22;100.00;60274.75;6247690;28;20330;-45
2023/01/19 04:21:51;;;;;;;7.33;6.40;;;;;;;-144.22;100.00;60274.75;6247081;28;20491;-43
2023/01/19 04:24:54;;;;;;;9.43;7.40;;;;;;;-144.22;100.00;60274.75;6245346;28;20933;-44
2023/01/19 04:27:57;;;;;;;9.63;7.33;;;;;;;-144.22;100.00;60274.75;6244435;28;20235;-43
2023/01/19 04:31:00;;;;;;;10.33;7.63;;;;;;;-144.22;100.00;60274.75;6248626;28;20313;-44
2023/01/19 04:34:03;;;;;;;9.47;7.20;;;;;;;-144.22;100.00;60274.75;6232884;28;20261;-43
2023/01/19 04:37:07;;;;;;;8.77;7.23;;;;;;;188.01;100.00;60274.75;6246990;28;20375;-44
2023/01/19 04:40:10;;;;;;;9.90;7.67;;;;;;;0.24;100.00;60274.75;6245156;28;20239;-44
2023/01/19 04:43:15;;;;;;;8.90;7.30;;;;;;;-144.22;100.00;60274.75;6243613;28;20614;-44
2023/01/19 04:46:18;;;;;;;10.10;7.73;;;;;;;-144.22;100.00;60274.75;6242819;28;20768;-44
2023/01/19 04:49:23;;;;;;;9.00;7.70;;;;;;;188.01;100.00;60274.75;6245123;28;20307;-44
2023/01/19 04:52:33;;;;;;;8.77;7.23;;;;;;;-144.22;100.00;60274.75;6243063;28;20282;-45
2023/01/19 04:55:37;;;;;;;13.63;8.50;;;;;;;-144.22;100.00;60274.75;6242744;28;20237;-44
2023/01/19 04:58:40;;;;;;;9.43;7.80;;;;;;;188.01;100.00;60274.75;6245698;28;20305;-44
2023/01/19 05:01:42;;;;;;;9.30;7.90;;;;;;;-144.22;100.00;60274.75;6245410;28;20233;-44
2023/01/19 05:04:45;;;;;;;11.23;8.10;;;;;;;-144.22;100.00;60274.75;6247331;28;20501;-43
2023/01/19 05:07:48;;;;;;;9.80;7.97;;;;;;;-144.22;100.00;60274.75;6249691;28;20229;-43
2023/01/19 05:10:51;;;;;;;9.87;7.73;;;;;;;-144.22;100.00;60274.75;6235238;28;20348;-43
2023/01/19 05:13:53;;;;;;;11.83;8.77;;;;;;;188.01;100.00;60274.75;6245764;28;20467;-44
2023/01/19 05:16:56;;;;;;;10.13;8.23;;;;;;;-144.22;100.00;60274.75;6244750;28;20343;-44
2023/01/19 05:19:59;;;;;;;10.50;8.67;;;;;;;-144.22;100.00;60274.75;6246153;28;20713;-46
2023/01/19 05:23:01;;;;;;;10.17;8.80;;;;;;;-144.22;100.00;60274.75;6242243;28;20262;-45
2023/01/19 05:26:04;;;;;;;11.57;9.10;;;;;;;-144.22;100.00;60274.75;6242335;28;20292;-43
2023/01/19 05:29:07;;;;;;;10.47;8.67;;;;;;;-144.22;100.00;60274.75;6245986;28;20238;-44
2023/01/19 05:32:13;;;;;;;11.43;8.63;;;;;;;-144.22;100.00;60274.75;6241869;28;20305;-44
2023/01/19 05:35:15;;;;;;;12.47;9.17;;;;;;;-144.22;100.00;60274.75;6241020;28;20421;-45
2023/01/19 05:38:32;;;;;;;14.17;9.53;;;;;;;-144.22;100.00;60274.75;6243989;28;20514;-45
2023/01/19 05:41:37;;;;;;;13.30;9.37;;;;;;;-144.22;100.00;60274.75;6242652;28;20458;-44
2023/01/19 05:44:40;;;;;;;10.63;8.53;;;;;;;-144.22;100.00;60274.75;6245100;28;20326;-44
2023/01/19 05:47:46;;;;;;;12.80;9.73;;;;;;;-144.22;100.00;60274.75;6246809;28;20442;-43
2023/01/19 05:50:49;;;;;;;11.30;8.87;;;;;;;-144.22;100.00;60274.75;6244240;28;20710;-44
2023/01/19 05:53:51;;;;;;;12.03;9.37;;;;;;;-144.22;100.00;60274.75;6240957;28;20234;-45
2023/01/19 05:56:54;;;;;;;14.33;10.10;;;;;;;-144.22;100.00;60274.75;6244145;28;20918;-44
2023/01/19 05:59:57;;;;;;;13.67;10.47;;;;;;;-144.22;100.00;60274.75;6240702;28;20410;-45
2023/01/19 06:03:00;;;;;;;12.83;9.70;;;;;;;-144.22;100.00;60274.75;6241973;28;20448;-45
2023/01/19 06:06:04;;;;;;;14.50;10.50;;;;;;;-144.22;100.00;60274.75;6245902;28;20328;-44
2023/01/19 06:09:07;;;;;;;12.97;10.07;;;;;;;188.01;100.00;60274.75;6241200;28;20231;-45
2023/01/19 06:12:10;;;;;;;12.80;9.97;;;;;;;-144.22;100.00;60274.75;6243831;28;20218;-44
2023/01/19 06:15:13;;;;;;;12.90;9.70;;;;;;;-144.22;100.00;60274.75;6246288;28;20371;-43
2023/01/19 06:18:15;;;;;;;15.83;11.10;;;;;;;-144.22;100.00;60274.75;6244704;28;20638;-43
2023/01/19 06:21:17;;;;;;;14.63;11.10;;;;;;;-144.22;100.00;60274.75;6246242;28;20218;-43
2023/01/19 06:24:21;;;;;;;13.27;10.30;;;;;;;-144.22;100.00;60274.75;6243142;28;20219;-44
2023/01/19 06:27:24;;;;;;;16.30;11.40;;;;;;;-144.22;100.00;60274.75;6243146;28;20757;-44
2023/01/19 06:30:26;;;;;;;14.43;10.80;;;;;;;-144.22;100.00;60274.75;6244244;28;20287;-44
2023/01/19 06:33:28;;;;;;;15.53;11.87;;;;;;;-144.22;100.00;60274.75;6246846;28;20237;-44
2023/01/19 06:36:34;;;;;;;16.17;11.90;;;;;;;-144.22;100.00;60274.75;6244084;28;20314;-44
2023/01/19 06:39:39;;;;;;;17.20;11.37;;;;;;;-144.22;100.00;60274.75;6247215;28;20602;-44
2023/01/19 06:42:41;;;;;;;14.73;11.27;;;;;;;-144.22;100.00;60274.75;6243407;28;20657;-43
2023/01/19 06:45:44;;;;;;;14.60;11.97;;;;;;;-144.22;100.00;60274.75;6244972;28;20879;-43
2023/01/19 06:48:47;;;;;;;15.77;11.60;;;;;;;-144.22;100.00;60274.75;6244415;28;20898;-44
2023/01/19 06:51:49;;;;;;;16.90;12.37;;;;;;;-144.22;100.00;60274.75;6241676;28;20541;-44
2023/01/19 06:54:54;;;;;;;15.50;12.03;;;;;;;188.01;100.00;60274.75;6242590;28;20331;-43
2023/01/19 06:57:58;;;;;;;17.13;11.73;;;;;;;-144.22;100.00;60274.75;6243523;28;20802;-44
2023/01/19 07:01:05;;;;;;;14.97;11.87;;;;;;;-144.22;100.00;60274.75;6243171;28;20226;-43
2023/01/19 07:04:07;;;;;;;14.73;10.93;;;;;;;-144.22;100.00;60274.75;6249681;28;20438;-44
2023/01/19 07:07:10;;;;;;;16.37;11.60;;;;;;;-144.22;100.00;60274.75;6243354;28;20747;-44
2023/01/19 07:10:14;;;;;;;16.67;12.40;;;;;;;0.98;100.00;60274.75;6249745;28;20761;-44
2023/01/19 07:13:16;;;;;;;14.27;10.40;;;;;;;-144.22;100.00;60274.75;6246729;28;20286;-45
2023/01/19 07:16:19;;;;;;;13.93;10.83;;;;;;;-144.22;100.00;60274.75;6248130;28;20240;-45
2023/01/19 07:19:21;;;;;;;14.43;11.17;;;;;;;-144.22;100.00;60274.75;6245732;28;20239;-44
2023/01/19 07:22:24;;;;;;;16.67;10.97;;;;;;;-144.22;100.00;60274.75;6248591;28;20790;-45
2023/01/19 07:25:27;;;;;;;14.87;11.47;;;;;;;-144.22;100.00;60274.75;6227548;28;20241;-43
2023/01/19 07:28:30;;;;;;;13.70;11.17;;;;;;;0.66;100.00;60274.75;6245355;28;20348;-43
2023/01/19 07:31:32;;;;;;;14.90;11.43;;;;;;;0.42;100.00;103558.78;6246491;28;20227;-44
2023/01/19 07:34:36;;;;;;;14.10;10.90;;;;;;;-144.22;100.00;60274.75;6250101;28;20235;-45
2023/01/19 07:37:38;;;;;;;14.93;11.53;;;;;;;0.44;100.00;60274.75;6243938;28;20223;-44
2023/01/19 07:40:41;;;;;;;14.53;10.97;;;;;;;-144.22;100.00;60274.75;6245762;28;20262;-44
2023/01/19 07:43:43;;;;;;;15.93;11.60;;;;;;;-144.22;100.00;60274.75;6246654;28;20226;-44
2023/01/19 07:46:46;;;;;;;16.23;11.43;;;;;;;-144.22;100.00;60274.75;6244341;28;20266;-45
2023/01/19 07:49:52;;;;;;;13.77;11.13;;;;;;;-144.22;100.00;60274.75;6246446;28;20242;-44
2023/01/19 07:52:55;;;;;;;15.63;11.63;;;;;;;-144.22;100.00;60274.75;6244749;28;20377;-44
2023/01/19 07:55:57;;;;;;;18.23;12.33;;;;;;;0.42;100.00;77797.13;6227086;28;20241;-46
2023/01/19 07:59:03;;;;;;;15.87;11.67;;;;;;;-144.22;100.00;60274.75;6245487;28;20242;-44
2023/01/19 08:02:09;;;;;;;16.43;12.13;;;;;;;-144.22;100.00;60274.75;6247740;28;20564;-44
2023/01/19 08:05:16;;;;;;;14.37;11.23;;;;;;;-144.22;100.00;60274.75;6248515;28;20237;-44
2023/01/19 08:08:19;;;;;;;15.10;11.33;;;;;;;-144.22;100.00;60274.75;6246525;28;20316;-44
2023/01/19 08:11:21;;;;;;;17.43;11.37;;;;;;;-144.22;100.00;60274.75;6249099;28;20242;-43
2023/01/19 08:14:23;;;;;;;14.13;10.97;;;;;;;-144.22;100.00;60274.75;6244477;28;20450;-44
2023/01/19 08:17:25;;;;;;;15.70;11.50;;;;;;;-144.22;100.00;60274.75;6246437;28;20610;-44
2023/01/19 08:20:28;;;;;;;14.87;11.27;;;;;;;-144.22;100.00;60274.75;6246913;28;20261;-43
2023/01/19 08:23:31;;;;;;;14.77;11.03;;;;;;;-144.22;100.00;60274.75;6244402;28;20384;-43
2023/01/19 08:26:34;;;;;;;13.77;11.23;;;;;;;-144.22;100.00;60274.75;6245175;28;20234;-44
2023/01/19 08:29:36;;;;;;;17.10;11.67;;;;;;;-144.22;100.00;60274.75;6245147;28;20660;-44
2023/01/19 08:32:38;;;;;;;13.23;9.97;;;;;;;-144.22;100.00;60274.75;6248815;28;20258;-44
2023/01/19 08:35:42;;;;;;;13.20;10.13;;;;;;;0.62;100.00;60274.75;6247058;28;20234;-45
2023/01/19 08:38:45;;;;;;;13.53;10.33;;;;;;;-144.22;100.00;60274.75;6245725;28;20250;-43
2023/01/19 08:41:47;;;;;;;13.00;9.80;;;;;;;0.74;100.00;60274.75;6248101;28;20370;-44
2023/01/19 08:44:49;;;;;;;12.17;9.70;;;;;;;0.76;100.00;60274.75;6245679;28;20231;-44
2023/01/19 08:47:59;;;;;;;11.57;9.23;;;;;;;0.78;100.00;60274.75;6246221;28;20242;-43
2023/01/19 08:51:02;;;;;;;13.90;10.00;;;;;;;0.84;100.00;60274.75;6246820;28;20874;-44
2023/01/19 08:54:04;;;;;;;11.60;9.23;;;;;;;0.86;100.00;60274.75;6244803;28;20314;-43
2023/01/19 08:57:07;;;;;;;14.87;9.70;;;;;;;0.88;100.00;60274.75;6243455;28;20824;-43
2023/01/19 09:00:10;;;;;;;12.37;9.67;;;;;;;-144.22;100.00;60274.75;6246274;28;20707;-43
2023/01/19 09:03:12;;;;;;;13.50;10.30;;;;;;;-144.22;100.00;60274.75;6244536;28;20237;-44
2023/01/19 09:06:17;;;;;;;11.10;9.17;;;;;;;-144.22;100.00;60274.75;6246047;28;20219;-44
2023/01/19 09:09:19;;;;;;;11.87;9.27;;;;;;;-144.22;100.00;60274.75;6247301;28;20242;-43
2023/01/19 09:12:21;;;;;;;11.67;9.07;;;;;;;-144.22;100.00;60274.75;6243564;28;20239;-43
2023/01/19 09:15:24;;;;;;;10.97;9.13;;;;;;;-144.22;100.00;60274.75;6245493;28;20418;-44
2023/01/19 09:18:26;;;;;;;12.47;10.00;;;;;;;3.58;100.00;60274.75;6243374;28;20222;-43
2023/01/19 09:21:29;;;;;;;11.77;9.17;;;;;;;-144.22;100.00;60274.75;6244121;28;20241;-44
2023/01/19 09:24:33;;;;;;;12.07;9.00;;;;;;;-144.22;100.00;60274.75;6213078;28;20749;-44
2023/01/19 09:27:35;;;;;;;10.83;8.43;;;;;;;-144.22;100.00;60274.75;6244859;28;20495;-44
2023/01/19 09:30:42;;;;;;;13.37;10.03;;;;;;;-144.22;100.00;60274.75;6245843;28;20248;-44
2023/01/19 09:33:45;;;;;;;14.53;9.87;;;;;;;-144.22;100.00;60274.75;6243545;28;20384;-44
2023/01/19 09:36:47;;;;;;;11.77;9.27;;;;;;;2.28;100.00;60274.75;6245746;28;20347;-44
2023/01/19 09:39:49;;;;;;;13.83;10.03;;;;;;;-144.22;100.00;60274.75;6242131;28;20873;-44
2023/01/19 09:42:58;;;;;;;12.80;10.40;;;;;;;-144.22;100.00;60274.75;6244105;28;20237;-43
2023/01/19 09:46:04;;;;;;;13.40;10.33;;;;;;;188.01;100.00;60274.75;6244350;28;20246;-44
2023/01/19 09:49:18;;;;;;;12.43;9.83;;;;;;;188.01;100.00;60274.75;6243442;28;20230;-43
2023/01/19 09:52:21;;;;;;;12.93;10.37;;;;;;;188.01;100.00;60274.75;6242565;28;20666;-43
2023/01/19 09:55:27;;;;;;;12.57;9.83;;;;;;;-144.22;100.00;60274.75;6242154;28;20227;-44
2023/01/19 09:58:29;;;;;;;10.30;8.80;;;;;;;-144.22;100.00;60274.75;6239819;28;20248;-44
2023/01/19 10:01:37;;;;;;;10.20;8.70;;;;;;;-144.22;100.00;60274.75;6242394;28;20448;-44
2023/01/19 10:04:42;;;;;;;10.70;8.60;;;;;;;188.01;100.00;60274.75;6244819;28;20532;-43
2023/01/19 10:08:07;;;;;;;12.00;8.90;;;;;;;188.01;100.00;60274.75;6241490;28;20689;-45
2023/01/19 10:11:36;;;;;;;10.50;8.20;;;;;;;188.01;100.00;60274.75;6247132;28;20263;-43
2023/01/19 10:15:14;;;;;;;10.50;8.67;;;;;;;-144.22;100.00;60274.75;6242869;28;20231;-43
2023/01/19 10:18:24;;;;;;;14.60;8.87;;;;;;;-144.22;100.00;60274.75;6240540;28;20243;-43
2023/01/19 10:21:32;;;;;;;10.40;8.03;;;;;;;188.01;100.00;60274.75;6243923;28;20260;-44
2023/01/19 10:24:42;;;;;;;9.00;7.10;;;;;;;188.01;100.00;60274.75;6241644;28;20695;-44
2023/01/19 10:27:46;;;;;;;10.17;7.60;;;;;;;-144.22;100.00;60274.75;6240518;28;20380;-43
2023/01/19 10:30:50;;;;;;;8.87;7.33;;;;;;;1.83;100.00;60274.75;6243706;28;20231;-43
2023/01/19 10:33:53;;;;;;;12.13;8.30;;;;;;;188.01;100.00;60274.75;6242199;28;20541;-43
2023/01/19 10:37:12;;;;;;;11.93;8.43;;;;;;;188.01;100.00;60274.75;6240186;28;20752;-43
2023/01/19 10:40:26;;;;;;;10.20;8.17;;;;;;;-144.22;100.00;60274.75;6243377;28;20244;-44
2023/01/19 10:43:40;;;;;;;10.67;8.80;;;;;;;-144.22;100.00;60274.75;6242513;28;20232;-44
2023/01/19 10:46:45;;;;;;;9.87;8.03;;;;;;;2.26;100.00;78043.09;6244862;28;20261;-43
2023/01/19 10:49:48;;;;;;;10.83;8.20;;;;;;;2.24;100.00;60274.75;6242539;28;20313;-44
2023/01/19 10:52:54;;;;;;;10.13;8.23;;;;;;;3.58;100.00;60274.75;6238748;28;20667;-44
2023/01/19 10:56:17;;;;;;;10.57;8.10;;;;;;;-144.22;100.00;60274.75;6237801;28;20624;-43
2023/01/19 10:59:51;;;;;;;9.83;7.93;;;;;;;188.01;100.00;60274.75;6239328;28;20343;-43
2023/01/19 11:02:53;;;;;;;12.17;8.37;;;;;;;-144.22;100.00;60274.75;6237717;28;20231;-44
2023/01/19 11:06:14;;;;;;;10.50;7.93;;;;;;;-144.22;100.00;60274.75;6245380;28;20487;-44
2023/01/19 11:09:18;;;;;;;7.87;6.60;;;;;;;-144.22;100.00;60274.75;6241721;28;20224;-43
2023/01/19 11:12:23;;;;;;;6.40;5.43;;;;;;;-144.22;100.00;60274.75;6237499;28;20279;-43
2023/01/19 11:15:38;;;;;;;5.83;4.17;;;;;;;-144.22;100.00;60274.75;6241720;28;20945;-43
2023/01/19 11:18:42;;;;;;;4.67;4.07;;;;;;;-144.22;100.00;60274.75;6238379;28;20427;-43
2023/01/19 11:21:45;;;;;;;5.27;3.70;;;;;;;-144.22;100.00;60274.75;6241722;28;20727;-44
2023/01/19 11:24:48;;;;;;;4.27;3.70;;;;;;;188.01;100.00;60274.75;6246401;28;20361;-43
2023/01/19 11:27:51;;;;;;;4.20;3.10;;;;;;;-144.22;100.00;60274.75;6244247;28;20242;-44
2023/01/19 11:30:55;;;;;;;5.13;3.50;;;;;;;1.68;100.00;60274.75;6243645;28;20698;-44
2023/01/19 11:34:04;;;;;;;3.17;2.73;;;;;;;-144.22;100.00;60274.75;6244780;28;20240;-44
2023/01/19 11:37:13;;;;;;;3.10;2.80;;;;;;;-144.22;100.00;60274.75;6238213;28;20386;-44
2023/01/19 11:40:15;;;;;;;3.77;3.10;;;;;;;-144.22;100.00;60274.75;6251769;28;20326;-44
2023/01/19 11:43:23;;;;;;;4.73;2.83;;;;;;;-144.22;100.00;60274.75;6246701;28;20339;-43
2023/01/19 11:46:32;;;;;;;4.20;3.43;;;;;;;-144.22;100.00;60274.75;6243185;28;20267;-43
2023/01/19 11:49:57;;;;;;;3.47;3.17;;;;;;;-144.22;100.00;60274.75;6236257;28;20515;-43
2023/01/19 11:53:22;;;;;;;4.27;3.53;;;;;;;-144.22;100.00;60274.75;6242417;28;20373;-44
2023/01/19 11:56:27;;;;;;;5.90;4.43;;;;;;;-144.22;100.00;60274.75;6251212;28;20244;-44
2023/01/19 11:59:30;;;;;;;7.13;5.17;;;;;;;-144.22;100.00;60274.75;6237023;28;20235;-44
2023/01/19 12:02:44;;;;;;;8.57;6.17;;;;;;;-144.22;100.00;60274.75;6248526;28;20230;-45
2023/01/19 12:05:50;;;;;;;11.20;8.13;;;;;;;1.32;100.00;60274.75;6243051;28;20323;-44
2023/01/19 12:09:08;;;;;;;9.53;7.87;;;;;;;-144.22;100.00;60274.75;6247755;28;20586;-43
2023/01/19 12:12:37;;;;;;;11.07;8.73;;;;;;;-144.22;100.00;60274.75;6245150;28;20661;-44
2023/01/19 12:15:43;;;;;;;12.70;9.13;;;;;;;-144.22;100.00;60274.75;6248212;28;20234;-43
2023/01/19 12:19:00;;;;;;;12.33;9.27;;;;;;;188.01;100.00;60274.75;6248127;28;20768;-43
2023/01/19 12:22:04;;;;;;;11.27;8.70;;;;;;;-144.22;100.00;60274.75;6246070;28;20275;-43
2023/01/19 12:25:15;;;;;;;11.60;9.40;;;;;;;-144.22;100.00;60274.75;6243703;28;20232;-44
2023/01/19 12:28:19;;;;;;;11.47;9.17;;;;;;;188.01;100.00;60274.75;6246721;28;20276;-43
2023/01/19 12:31:22;;;;;;;12.27;9.17;;;;;;;188.01;100.00;60274.75;6244199;28;20278;-43
2023/01/19 12:34:29;;;;;;;11.10;8.43;;;;;;;-144.22;100.00;60274.75;6227847;28;20273;-44
2023/01/19 12:37:38;;;;;;;11.87;9.73;;;;;;;-144.22;100.00;60274.75;6243766;28;20239;-44
2023/01/19 12:40:40;;;;;;;10.20;8.80;;;;;;;-144.22;100.00;60274.75;6229614;28;20886;-44
2023/01/19 12:43:42;;;;;;;10.83;9.10;;;;;;;-144.22;100.00;60274.75;6245457;28;20475;-44
2023/01/19 12:46:44;;;;;;;15.17;9.90;;;;;;;-144.22;100.00;60274.75;6241486;28;20235;-43
2023/01/19 12:49:55;;;;;;;15.40;9.50;;;;;;;-144.22;100.00;60274.75;6245878;28;20907;-44
2023/01/19 12:53:01;;;;;;;12.07;8.93;;;;;;;-144.22;100.00;60274.75;6245891;28;20231;-44
2023/01/19 12:56:08;;;;;;;12.43;9.37;;;;;;;-144.22;100.00;60274.75;6248114;28;20329;-43
2023/01/19 12:59:25;;;;;;;12.37;9.07;;;;;;;-144.22;100.00;60274.75;6245967;28;20252;-44
2023/01/19 13:02:45;;;;;;;12.80;9.80;;;;;;;11.36;100.00;60274.75;6244319;28;20346;-43
2023/01/19 13:05:53;;;;;;;15.53;10.13;;;;;;;21.74;100.00;60274.75;6244985;28;20232;-44
2023/01/19 13:08:58;;;;;;;14.90;9.47;;;;;;;1.25;100.00;60274.75;6241181;28;20782;-44
2023/01/19 13:12:13;;;;;;;12.17;9.90;;;;;;;-144.22;100.00;60274.75;6231792;28;20253;-43
2023/01/19 13:15:34;;;;;;;14.03;9.33;;;;;;;-144.22;100.00;60274.75;6243914;28;20747;-44
2023/01/19 13:18:40;;;;;;;11.20;8.97;;;;;;;3.58;100.00;60274.75;6247450;28;20265;-43
2023/01/19 13:21:47;;;;;;;12.77;9.70;;;;;;;188.01;100.00;60274.75;6240336;28;20232;-43
2023/01/19 13:25:12;;;;;;;12.13;9.53;;;;;;;-144.22;100.00;60274.75;6244740;28;20231;-43
2023/01/19 13:28:17;;;;;;;13.97;9.13;;;;;;;-144.22;100.00;60274.75;6239414;28;20504;-43
2023/01/19 13:31:20;;;;;;;15.43;9.03;;;;;;;-144.22;100.00;60274.75;6245581;28;20238;-44
2023/01/19 13:34:25;;;;;;;11.57;9.37;;;;;;;3.58;100.00;60274.75;6243278;28;20778;-43
2023/01/19 13:37:35;;;;;;;12.47;8.60;;;;;;;-144.22;100.00;60274.75;6245312;28;20253;-43
2023/01/19 13:40:38;;;;;;;14.17;7.93;;;;;;;-144.22;100.00;60274.75;6245501;28;20302;-43
2023/01/19 13:43:42;;;;;;;14.63;9.93;;;;;;;-144.22;100.00;60274.75;6245030;28;20663;-43
2023/01/19 13:46:45;;;;;;;12.70;9.23;;;;;;;0.94;100.00;60274.75;6243340;28;20828;-44
2023/01/19 13:49:54;;;;;;;11.27;8.50;;;;;;;-144.22;100.00;60274.75;6242812;28;20235;-44
2023/01/19 13:52:58;;;;;;;10.67;7.63;;;;;;;0.98;100.00;60274.75;6246160;28;20219;-43
2023/01/19 13:56:15;;;;;;;14.80;8.97;;;;;;;0.79;100.00;60274.75;6237914;28;20633;-43
2023/01/19 13:59:18;;;;;;;11.63;7.93;;;;;;;0.74;100.00;60274.75;6242648;28;20312;-43
2023/01/19 14:02:20;;;;;;;12.77;8.23;;;;;;;-144.22;100.00;60274.75;6244306;28;20695;-43
2023/01/19 14:05:36;;;;;;;10.30;8.13;;;;;;;0.79;100.00;60274.75;6246013;28;20231;-43
2023/01/19 14:08:39;;;;;;;11.07;8.63;;;;;;;0.78;100.00;60274.75;6241708;28;20307;-44
2023/01/19 14:11:44;;;;;;;13.67;9.07;;;;;;;0.79;100.00;60274.75;6243043;28;20764;-43